createdAt,value
2022-12-03T00:00:50.766Z,96.57
2022-12-03T00:04:53.730Z,96.53
2022-12-03T00:06:55.430Z,96.6
2022-12-03T00:08:57.330Z,96.6
2022-12-03T00:10:59.024Z,96.63
2022-12-03T00:15:01.922Z,96.57
2022-12-03T00:17:03.523Z,96.58
2022-12-03T00:19:04.547Z,96.7
2022-12-03T00:21:05.729Z,96.78
2022-12-03T00:23:07.173Z,96.74
2022-12-03T00:25:08.784Z,96.76
2022-12-03T00:27:10.438Z,96.83
2022-12-03T00:29:12.459Z,96.85
2022-12-03T00:31:13.588Z,96.88
2022-12-03T00:33:14.884Z,96.91
2022-12-03T00:35:16.603Z,96.89
2022-12-03T00:37:17.806Z,96.85
2022-12-03T00:39:18.933Z,96.92
2022-12-03T00:41:20.907Z,96.87
2022-12-03T00:43:22.890Z,96.83
2022-12-03T00:45:24.418Z,96.88
2022-12-03T00:47:25.878Z,96.82
2022-12-03T00:49:27.284Z,96.86
2022-12-03T00:51:28.787Z,96.69
2022-12-03T00:53:30.155Z,96.77
2022-12-03T00:57:33.905Z,96.87
2022-12-03T00:59:35.085Z,96.91
2022-12-03T01:01:36.801Z,96.92
2022-12-03T01:03:38.040Z,96.9
2022-12-03T01:05:39.194Z,96.89
2022-12-03T01:07:40.948Z,96.84
2022-12-03T01:09:42.356Z,96.89
2022-12-03T01:11:44.246Z,96.89
2022-12-03T01:13:46.206Z,96.87
2022-12-03T01:15:47.569Z,96.89
2022-12-03T01:17:49.048Z,96.87
2022-12-03T01:19:50.738Z,96.7
2022-12-03T01:21:52.214Z,96.7
2022-12-03T01:23:54.174Z,96.63
2022-12-03T01:25:55.681Z,96.6
2022-12-03T01:28:40.854Z,96.69
2022-12-03T01:30:42.736Z,96.57
2022-12-03T01:34:45.304Z,96.64
2022-12-03T01:36:47.170Z,96.68
2022-12-03T01:38:48.651Z,96.65
2022-12-03T01:40:50.275Z,96.74
2022-12-03T01:42:52.110Z,96.68
2022-12-03T01:44:53.334Z,96.74
2022-12-03T01:46:54.725Z,96.69
2022-12-03T01:48:56.076Z,96.7
2022-12-03T01:50:57.523Z,96.67
2022-12-03T01:52:59.243Z,96.68
2022-12-03T01:55:00.945Z,96.64
2022-12-03T01:57:02.704Z,96.63
2022-12-03T01:59:04.207Z,96.59
2022-12-03T02:01:06.156Z,96.81
2022-12-03T02:03:07.309Z,96.75
2022-12-03T02:05:08.961Z,96.77
2022-12-03T02:07:10.906Z,96.81
2022-12-03T02:09:12.163Z,96.79
2022-12-03T02:11:13.337Z,96.77
2022-12-03T02:13:15.084Z,96.7
2022-12-03T02:17:17.818Z,96.66
2022-12-03T02:19:19.456Z,96.62
2022-12-03T02:21:21.116Z,96.64
2022-12-03T02:23:22.910Z,96.57
2022-12-03T02:25:24.790Z,96.57
2022-12-03T02:27:25.949Z,96.58
2022-12-03T02:29:27.933Z,96.52
2022-12-03T02:31:29.785Z,96.49
2022-12-03T02:33:31.482Z,96.49
2022-12-03T02:35:32.664Z,96.56
2022-12-03T02:37:34.367Z,96.56
2022-12-03T02:39:36.353Z,96.54
2022-12-03T02:41:37.562Z,96.55
2022-12-03T02:43:38.656Z,96.72
2022-12-03T02:45:39.901Z,96.71
2022-12-03T02:47:41.317Z,96.77
2022-12-03T02:49:42.847Z,96.78
2022-12-03T02:51:44.073Z,96.83
2022-12-03T02:53:45.821Z,96.89
2022-12-03T02:55:47.576Z,96.87
2022-12-03T02:59:50.346Z,96.84
2022-12-03T03:01:51.681Z,96.84
2022-12-03T03:03:53.093Z,96.82
2022-12-03T03:05:54.488Z,96.87
2022-12-03T03:07:55.819Z,96.85
2022-12-03T03:09:56.832Z,96.76
2022-12-03T03:11:58.570Z,96.8
2022-12-03T03:14:00.013Z,96.83
2022-12-03T03:16:01.847Z,96.83
2022-12-03T03:18:03.621Z,96.87
2022-12-03T03:20:05.524Z,96.8
2022-12-03T03:22:06.977Z,96.8
2022-12-03T03:24:08.647Z,96.84
2022-12-03T03:26:10.228Z,96.78
2022-12-03T03:28:12.179Z,96.74
2022-12-03T03:32:14.842Z,96.71
2022-12-03T03:34:16.495Z,96.66
2022-12-03T03:36:18.137Z,96.67
2022-12-03T03:38:19.974Z,96.66
2022-12-03T03:42:23.521Z,96.65
2022-12-03T03:44:24.893Z,96.56
2022-12-03T03:46:26.205Z,96.32
2022-12-03T03:48:27.899Z,96.36
2022-12-03T03:50:29.107Z,96.45
2022-12-03T03:52:30.608Z,96.56
2022-12-03T03:54:31.947Z,96.58
2022-12-03T03:56:33.955Z,96.61
2022-12-03T03:58:35.950Z,96.62
2022-12-03T04:00:37.537Z,96.49
2022-12-03T04:02:39.230Z,96.63
2022-12-03T04:04:40.910Z,96.59
2022-12-03T04:06:42.656Z,96.66
2022-12-03T04:08:44.456Z,96.63
2022-12-03T04:10:46.102Z,96.65
2022-12-03T04:14:49.578Z,96.43
2022-12-03T04:16:50.630Z,96.47
2022-12-03T04:18:52.327Z,96.47
2022-12-03T04:20:54.000Z,96.54
2022-12-03T04:22:55.411Z,96.53
2022-12-03T04:24:57.079Z,96.59
2022-12-03T04:26:58.587Z,96.6
2022-12-03T04:28:59.920Z,96.63
2022-12-03T04:31:01.250Z,96.65
2022-12-03T04:33:02.768Z,96.73
2022-12-03T04:35:04.818Z,96.69
2022-12-03T04:37:06.581Z,96.71
2022-12-03T04:39:07.940Z,96.79
2022-12-03T04:41:09.756Z,96.73
2022-12-03T04:43:11.142Z,96.77
2022-12-03T04:45:13.121Z,96.74
2022-12-03T04:47:14.704Z,96.74
2022-12-03T04:49:16.659Z,96.62
2022-12-03T04:51:17.827Z,96.69
2022-12-03T04:53:19.723Z,96.65
2022-12-03T04:55:21.044Z,96.67
2022-12-03T04:57:22.066Z,96.69
2022-12-03T04:59:23.400Z,96.68
2022-12-03T05:01:25.359Z,96.65
2022-12-03T05:03:27.099Z,96.61
2022-12-03T05:07:30.287Z,96.63
2022-12-03T05:09:32.052Z,96.65
2022-12-03T05:11:33.503Z,96.58
2022-12-03T05:13:34.860Z,96.57
2022-12-03T05:15:36.843Z,96.58
2022-12-03T05:17:38.126Z,96.57
2022-12-03T05:19:38.916Z,96.58
2022-12-03T05:21:40.272Z,96.55
2022-12-03T05:23:42.040Z,96.62
2022-12-03T05:25:43.633Z,96.56
2022-12-03T05:27:44.816Z,96.51
2022-12-03T05:29:46.814Z,96.62
2022-12-03T05:31:48.683Z,96.69
2022-12-03T05:33:50.056Z,96.72
2022-12-03T05:35:52.103Z,96.7
2022-12-03T05:37:53.221Z,96.52
2022-12-03T05:39:54.784Z,96.54
2022-12-03T05:41:56.746Z,96.63
2022-12-03T05:43:58.796Z,96.54
2022-12-03T05:46:00.833Z,96.52
2022-12-03T05:48:01.879Z,96.55
2022-12-03T05:50:02.970Z,96.54
2022-12-03T05:52:04.777Z,96.55
2022-12-03T05:56:07.478Z,96.59
2022-12-03T05:58:09.087Z,96.55
2022-12-03T06:00:10.325Z,96.67
2022-12-03T06:02:11.848Z,96.55
2022-12-03T06:06:15.028Z,96.5
2022-12-03T06:08:17.040Z,96.38
2022-12-03T06:10:18.832Z,96.43
2022-12-03T06:12:20.686Z,96.5
2022-12-03T06:14:21.773Z,96.13
2022-12-03T06:16:23.078Z,96.24
2022-12-03T06:18:24.660Z,96.28
2022-12-03T06:20:26.384Z,96.19
2022-12-03T06:22:28.189Z,96.22
2022-12-03T06:24:29.330Z,96.26
2022-12-03T06:26:31.281Z,96.27
2022-12-03T06:28:32.990Z,96.33
2022-12-03T06:30:34.062Z,96.32
2022-12-03T06:32:35.629Z,96.32
2022-12-03T06:34:37.537Z,96.18
2022-12-03T06:38:40.860Z,96.32
2022-12-03T06:40:42.464Z,96.26
2022-12-03T06:42:44.531Z,96.2
2022-12-03T06:44:45.754Z,96.2
2022-12-03T06:48:48.241Z,96.19
2022-12-03T06:50:49.906Z,96.2
2022-12-03T06:52:51.349Z,96.21
2022-12-03T06:54:53.169Z,96.23
2022-12-03T06:56:54.866Z,96.24
2022-12-03T06:58:55.917Z,96.32
2022-12-03T07:00:57.517Z,96.18
2022-12-03T07:02:59.370Z,96.26
2022-12-03T07:05:00.469Z,96.27
2022-12-03T07:07:01.794Z,96.32
2022-12-03T07:09:03.415Z,96.35
2022-12-03T07:11:04.715Z,96.35
2022-12-03T07:13:06.018Z,96.24
2022-12-03T07:15:07.054Z,96.24
2022-12-03T07:17:08.643Z,96.21
2022-12-03T07:19:10.138Z,96.01
2022-12-03T07:21:11.157Z,96.12
2022-12-03T07:23:13.144Z,96.2
2022-12-03T07:25:18.162Z,96.24
2022-12-03T07:27:16.227Z,96.1
2022-12-03T07:31:18.662Z,96.04
2022-12-03T07:33:19.590Z,96.09
2022-12-03T07:35:21.086Z,96.19
2022-12-03T07:37:23.546Z,96
2022-12-03T07:39:24.515Z,96.13
2022-12-03T07:41:26.453Z,96.2
2022-12-03T07:43:27.520Z,96.14
2022-12-03T07:45:29.010Z,96.17
2022-12-03T07:47:30.511Z,95.95
2022-12-03T07:49:32.198Z,95.9
2022-12-03T07:51:33.726Z,95.98
2022-12-03T07:53:34.961Z,95.6
2022-12-03T07:55:36.756Z,95.76
2022-12-03T07:57:37.875Z,95.8
2022-12-03T07:59:39.459Z,95.58
2022-12-03T08:03:42.602Z,95.87
2022-12-03T08:05:44.468Z,95.68
2022-12-03T08:07:45.956Z,95.71
2022-12-03T08:09:47.254Z,95.79
2022-12-03T08:11:48.822Z,95.7
2022-12-03T08:12:32.696Z,95.65
2022-12-03T08:14:34.426Z,95.78
2022-12-03T08:16:35.723Z,95.76
2022-12-03T08:18:37.483Z,95.77
2022-12-03T08:20:39.273Z,96.04
2022-12-03T08:22:40.548Z,95.76
2022-12-03T08:24:42.313Z,95.64
2022-12-03T08:26:44.133Z,95.76
2022-12-03T08:28:45.807Z,95.84
2022-12-03T08:30:47.323Z,95.74
2022-12-03T08:32:48.345Z,95.96
2022-12-03T08:34:50.225Z,95.96
2022-12-03T08:36:51.625Z,95.95
2022-12-03T08:40:55.351Z,95.55
2022-12-03T08:42:57.125Z,95.59
2022-12-03T08:44:58.626Z,95.56
2022-12-03T08:46:59.975Z,95.67
2022-12-03T08:51:02.725Z,95.59
2022-12-03T08:53:04.346Z,95.51
2022-12-03T08:55:06.261Z,95.42
2022-12-03T08:57:07.757Z,95.55
2022-12-03T08:59:09.420Z,95.65
2022-12-03T09:01:10.914Z,95.5
2022-12-03T09:03:12.713Z,95.67
2022-12-03T09:05:14.364Z,95.75
2022-12-03T09:07:15.971Z,95.49
2022-12-03T09:09:17.701Z,95.64
2022-12-03T09:11:18.806Z,95.73
2022-12-03T09:13:20.439Z,95.53
2022-12-03T09:15:21.826Z,95.59
2022-12-03T09:17:23.117Z,95.28
2022-12-03T09:19:24.803Z,95.5
2022-12-03T09:21:26.456Z,95.56
2022-12-03T09:23:27.862Z,95.56
2022-12-03T09:25:29.136Z,95.88
2022-12-03T09:27:30.707Z,95.54
2022-12-03T09:29:32.633Z,95.59
2022-12-03T09:31:34.289Z,95.64
2022-12-03T09:33:35.992Z,95.79
2022-12-03T09:35:37.554Z,95.99
2022-12-03T09:39:40.191Z,95.66
2022-12-03T09:41:41.464Z,95.86
2022-12-03T09:44:03.099Z,95.95
2022-12-03T09:45:45.145Z,95.55
2022-12-03T09:49:47.340Z,95.52
2022-12-03T09:51:48.979Z,95.81
2022-12-03T09:53:50.690Z,95.55
2022-12-03T09:55:52.618Z,94.96
2022-12-03T09:57:53.653Z,95.19
2022-12-03T09:59:55.862Z,95.01
2022-12-03T10:01:57.021Z,95.06
2022-12-03T10:03:58.530Z,94.92
2022-12-03T10:05:59.794Z,94.37
2022-12-03T10:08:01.163Z,94.32
2022-12-03T10:10:02.894Z,94.38
2022-12-03T10:12:04.561Z,94.43
2022-12-03T10:14:05.906Z,94.29
2022-12-03T10:16:07.442Z,94.36
2022-12-03T10:18:08.676Z,94.4
2022-12-03T10:20:09.799Z,94.37
2022-12-03T10:22:11.530Z,94.12
2022-12-03T10:24:13.338Z,94.09
2022-12-03T10:26:14.658Z,94.05
2022-12-03T10:28:16.344Z,93.93
2022-12-03T10:32:19.571Z,94.09
2022-12-03T10:34:21.022Z,93.45
2022-12-03T10:36:22.188Z,93.38
2022-12-03T10:38:23.352Z,93.69
2022-12-03T10:40:24.461Z,93.68
2022-12-03T10:42:26.032Z,93.41
2022-12-03T10:44:28.012Z,93.39
2022-12-03T10:46:29.956Z,92.65
2022-12-03T10:48:31.596Z,92.75
2022-12-03T10:50:32.634Z,93.09
2022-12-03T10:54:35.176Z,92.21
2022-12-03T10:56:36.554Z,92.64
2022-12-03T10:58:38.114Z,91.97
2022-12-03T11:00:39.396Z,92.6
2022-12-03T11:04:42.790Z,91.99
2022-12-03T11:06:44.017Z,91.82
2022-12-03T11:08:46.799Z,92.92
2022-12-03T11:10:46.954Z,91.3
2022-12-03T11:12:48.219Z,91.26
2022-12-03T11:14:49.203Z,92.26
2022-12-03T11:16:50.212Z,91.22
2022-12-03T11:18:52.085Z,91.65
2022-12-03T11:20:53.437Z,91.41
2022-12-03T11:22:54.568Z,91.22
2022-12-03T11:24:56.542Z,91.13
2022-12-03T11:26:57.681Z,90.37
2022-12-03T11:28:58.808Z,90.5
2022-12-03T11:31:00.578Z,91.33
2022-12-03T11:33:02.092Z,90.71
2022-12-03T11:35:03.424Z,91.53
2022-12-03T11:37:05.021Z,91.61
2022-12-03T11:39:06.458Z,90.59
2022-12-03T11:41:07.907Z,90.42
2022-12-03T11:43:09.384Z,90.09
2022-12-03T11:45:10.491Z,90.75
2022-12-03T11:47:12.035Z,90.42
2022-12-03T11:49:13.185Z,90.32
2022-12-03T11:53:16.208Z,90.08
2022-12-03T11:55:17.319Z,90.65
2022-12-03T11:57:19.243Z,89.66
2022-12-03T11:59:20.934Z,89.41
2022-12-03T12:03:23.648Z,89.89
2022-12-03T12:05:25.326Z,88.99
2022-12-03T12:07:27.084Z,88.65
2022-12-03T12:09:28.252Z,88.55
2022-12-03T12:11:30.003Z,89.57
2022-12-03T12:13:31.481Z,89.09
2022-12-03T12:15:32.621Z,88.9
2022-12-03T12:17:33.745Z,88.81
2022-12-03T12:19:35.210Z,89.5
2022-12-03T12:21:45.164Z,89.51
2022-12-03T12:23:38.517Z,89.13
2022-12-03T12:25:40.312Z,89.65
2022-12-03T12:27:41.872Z,89.73
2022-12-03T12:29:42.934Z,89.75
2022-12-03T12:31:45.186Z,90.02
2022-12-03T12:33:45.375Z,89.98
2022-12-03T12:35:46.748Z,90.45
2022-12-03T12:37:50.094Z,90.31
2022-12-03T12:39:49.717Z,90.53
2022-12-03T12:41:51.571Z,90.78
2022-12-03T12:45:55.257Z,91.17
2022-12-03T12:47:56.894Z,90.86
2022-12-03T12:49:58.301Z,90.98
2022-12-03T12:51:59.312Z,91.68
2022-12-03T12:54:00.818Z,91.16
2022-12-03T12:56:02.176Z,91.36
2022-12-03T12:58:03.864Z,91.38
2022-12-03T13:00:05.726Z,91.99
2022-12-03T13:02:10.206Z,91.67
2022-12-03T13:04:09.500Z,91.5
2022-12-03T13:06:10.906Z,92.29
2022-12-03T13:08:12.353Z,91.65
2022-12-03T13:10:13.439Z,91.67
2022-12-03T13:12:14.847Z,91.81
2022-12-03T13:14:16.249Z,92.28
2022-12-03T13:16:17.382Z,92.05
2022-12-03T13:18:19.145Z,92.38
2022-12-03T13:20:20.655Z,92.21
2022-12-03T13:22:22.077Z,92.35
2022-12-03T13:24:23.961Z,92.48
2022-12-03T13:26:34.455Z,92.34
2022-12-03T13:28:27.362Z,92.55
2022-12-03T13:30:28.662Z,92.15
2022-12-03T13:32:30.121Z,91.94
2022-12-03T13:34:31.299Z,91.39
2022-12-03T13:36:32.571Z,91.64
2022-12-03T13:38:34.038Z,91.98
2022-12-03T13:40:35.628Z,91.55
2022-12-03T13:42:36.673Z,91.89
2022-12-03T13:44:37.777Z,91.8
2022-12-03T13:46:38.941Z,91.94
2022-12-03T13:48:40.750Z,91.73
2022-12-03T13:50:42.334Z,91.91
2022-12-03T13:52:43.553Z,92.31
2022-12-03T13:54:45.561Z,92.11
2022-12-03T13:56:47.105Z,91.92
2022-12-03T14:00:49.337Z,92.05
2022-12-03T14:02:51.241Z,91.83
2022-12-03T14:04:56.911Z,92.01
2022-12-03T14:06:54.390Z,91.52
2022-12-03T14:11:00.299Z,92.11
2022-12-03T14:12:59.516Z,91.75
2022-12-03T14:15:00.980Z,92.52
2022-12-03T14:17:02.959Z,92.29
2022-12-03T14:19:04.191Z,91.94
2022-12-03T14:21:06.178Z,91.92
2022-12-03T14:23:08.113Z,91.74
2022-12-03T14:25:10.001Z,91.41
2022-12-03T14:27:10.997Z,91.87
2022-12-03T14:29:12.859Z,91.41
2022-12-03T14:31:14.492Z,91.01
2022-12-03T14:33:15.787Z,91.33
2022-12-03T14:35:17.067Z,91.48
2022-12-03T14:37:18.127Z,91.63
2022-12-03T14:39:20.150Z,91.68
2022-12-03T14:43:22.398Z,91.88
2022-12-03T14:45:23.817Z,91.85
2022-12-03T14:47:25.368Z,92.09
2022-12-03T14:49:27.209Z,91.84
2022-12-03T14:53:30.008Z,91.43
2022-12-03T14:55:31.760Z,91.19
2022-12-03T14:57:32.769Z,91.59
2022-12-03T15:00:18.684Z,91.94
2022-12-03T15:04:21.664Z,92.09
2022-12-03T15:06:22.985Z,92
2022-12-03T15:08:24.856Z,91.69
2022-12-03T15:10:25.997Z,91.73
2022-12-03T15:12:27.070Z,92.38
2022-12-03T15:14:28.319Z,92.27
2022-12-03T15:16:29.991Z,92.38
2022-12-03T15:18:31.966Z,92.48
2022-12-03T15:20:33.124Z,92.07
2022-12-03T15:22:34.168Z,91.83
2022-12-03T15:24:35.672Z,91.79
2022-12-03T15:26:36.949Z,92.32
2022-12-03T15:28:38.501Z,91.74
2022-12-03T15:30:40.223Z,91.38
2022-12-03T15:32:42.048Z,91.38
2022-12-03T15:36:44.863Z,91.41
2022-12-03T15:38:46.020Z,91.42
2022-12-03T15:40:47.200Z,91.29
2022-12-03T15:42:48.454Z,91.37
2022-12-03T15:46:51.830Z,91.41
2022-12-03T15:48:53.463Z,91.56
2022-12-03T15:50:54.889Z,91.68
2022-12-03T15:52:56.669Z,91.83
2022-12-03T15:54:58.138Z,91.54
2022-12-03T15:56:59.868Z,91.88
2022-12-03T15:59:01.571Z,92.01
2022-12-03T16:01:03.618Z,91.64
2022-12-03T16:03:04.724Z,91.92
2022-12-03T16:05:06.213Z,91.59
2022-12-03T16:07:08.082Z,91.63
2022-12-03T16:09:09.459Z,91.82
2022-12-03T16:11:11.293Z,91.6
2022-12-03T16:13:12.268Z,91.61
2022-12-03T16:15:13.987Z,91.97
2022-12-03T16:17:15.048Z,91.84
2022-12-03T16:19:16.661Z,92.26
2022-12-03T16:21:20.805Z,91.51
2022-12-03T16:23:19.422Z,91.87
2022-12-03T16:25:21.138Z,91.43
2022-12-03T16:29:24.172Z,91.01
2022-12-03T16:31:25.894Z,91.49
2022-12-03T16:33:27.918Z,90.87
2022-12-03T16:35:28.726Z,90.83
2022-12-03T16:37:30.315Z,91.1
2022-12-03T16:39:32.176Z,90.86
2022-12-03T16:41:34.125Z,90.68
2022-12-03T16:43:35.749Z,90.91
2022-12-03T16:45:36.774Z,91.1
2022-12-03T16:47:38.520Z,91.09
2022-12-03T16:49:40.143Z,91
2022-12-03T16:51:41.972Z,90.78
2022-12-03T16:53:43.214Z,91.24
2022-12-03T16:55:44.432Z,91.65
2022-12-03T16:57:46.284Z,91.03
2022-12-03T16:59:47.678Z,90.97
2022-12-03T17:01:48.948Z,91.34
2022-12-03T17:03:50.247Z,91.18
2022-12-03T17:05:51.407Z,91.39
2022-12-03T17:07:53.346Z,91.11
2022-12-03T17:11:56.395Z,91.72
2022-12-03T17:13:58.015Z,91.73
2022-12-03T17:15:59.237Z,91.53
2022-12-03T17:18:00.935Z,91.46
2022-12-03T17:20:02.342Z,91.44
2022-12-03T17:22:04.307Z,90.97
2022-12-03T17:24:05.678Z,90.87
2022-12-03T17:26:07.755Z,91.21
2022-12-03T17:28:09.172Z,90.67
2022-12-03T17:30:10.975Z,91.1
2022-12-03T17:32:12.995Z,90.83
2022-12-03T17:34:14.230Z,90.89
2022-12-03T17:36:15.781Z,91
2022-12-03T17:38:17.628Z,90.99
2022-12-03T17:40:18.822Z,91.14
2022-12-03T17:42:20.664Z,91.25
2022-12-03T17:44:22.228Z,91.49
2022-12-03T17:46:24.050Z,91.54
2022-12-03T17:48:25.558Z,91.58
2022-12-03T17:50:26.656Z,91.58
2022-12-03T17:54:43.433Z,91.04
2022-12-03T17:56:31.334Z,91.15
2022-12-03T18:00:34.747Z,90.78
2022-12-03T18:02:36.208Z,90.72
2022-12-03T18:04:37.957Z,91.08
2022-12-03T18:06:39.262Z,91.18
2022-12-03T18:08:40.909Z,90.73
2022-12-03T18:10:42.381Z,91.27
2022-12-03T18:12:43.866Z,91.04
2022-12-03T18:14:45.194Z,90.8
2022-12-03T18:16:46.712Z,90.55
2022-12-03T18:18:50.175Z,90.87
2022-12-03T18:20:49.611Z,90.59
2022-12-03T18:22:51.133Z,90.53
2022-12-03T18:26:54.173Z,90.94
2022-12-03T18:28:55.631Z,91.28
2022-12-03T18:30:56.779Z,91.11
2022-12-03T18:32:58.242Z,91.42
2022-12-03T18:37:01.374Z,91.37
2022-12-03T18:39:02.569Z,91.5
2022-12-03T18:41:04.408Z,91.51
2022-12-03T18:43:05.870Z,91.71
2022-12-03T18:45:07.158Z,91.61
2022-12-03T18:47:08.781Z,91.67
2022-12-03T18:49:09.845Z,92.24
2022-12-03T18:51:11.504Z,92.17
2022-12-03T18:53:12.680Z,92.35
2022-12-03T18:57:16.315Z,92.83
2022-12-03T19:01:20.217Z,92.81
2022-12-03T19:03:21.585Z,92.76
2022-12-03T19:05:23.619Z,92.78
2022-12-03T19:09:26.641Z,92.78
2022-12-03T19:11:28.395Z,92.71
2022-12-03T19:13:29.415Z,92.57
2022-12-03T19:15:31.108Z,92.68
2022-12-03T19:19:33.930Z,92.39
2022-12-03T19:21:35.891Z,92.68
2022-12-03T19:23:37.176Z,92.47
2022-12-03T19:25:38.421Z,92.64
2022-12-03T19:27:39.883Z,92.68
2022-12-03T19:29:41.697Z,92.99
2022-12-03T19:31:43.602Z,92.73
2022-12-03T19:33:44.696Z,92.57
2022-12-03T19:35:47.346Z,92.87
2022-12-03T19:37:48.266Z,92.98
2022-12-03T19:39:50.272Z,92.98
2022-12-03T19:41:52.147Z,93.04
2022-12-03T19:43:53.687Z,93.14
2022-12-03T19:45:55.209Z,93.09
2022-12-03T19:47:56.847Z,93.04
2022-12-03T19:49:58.526Z,93.09
2022-12-03T19:52:00.236Z,93.14
2022-12-03T19:54:01.890Z,93.18
2022-12-03T19:56:03.896Z,93.08
2022-12-03T19:58:05.018Z,93.22
2022-12-03T20:00:06.967Z,93.23
2022-12-03T20:02:08.828Z,93.28
2022-12-03T20:04:10.727Z,93.27
2022-12-03T20:06:12.116Z,93.3
2022-12-03T20:08:14.183Z,93.33
2022-12-03T20:10:15.648Z,93.09
2022-12-03T20:12:17.049Z,93.29
2022-12-03T20:14:18.614Z,93.37
2022-12-03T20:16:20.153Z,93.47
2022-12-03T20:18:21.595Z,93.52
2022-12-03T20:20:22.841Z,93.53
2022-12-03T20:22:24.861Z,93.36
2022-12-03T20:24:26.805Z,93.53
2022-12-03T20:26:28.706Z,93.37
2022-12-03T20:28:30.305Z,93.29
2022-12-03T20:30:31.894Z,93.36
2022-12-03T20:34:34.803Z,93.2
2022-12-03T20:36:36.334Z,93.11
2022-12-03T20:38:38.084Z,93
2022-12-03T20:40:39.479Z,93.14
2022-12-03T20:44:42.534Z,93.15
2022-12-03T20:46:43.877Z,93.2
2022-12-03T20:48:45.445Z,93.09
2022-12-03T20:50:46.620Z,92.99
2022-12-03T20:53:03.530Z,92.76
2022-12-03T20:54:49.645Z,92.62
2022-12-03T20:56:51.222Z,92.92
2022-12-03T20:58:52.796Z,92.97
2022-12-03T21:00:54.732Z,93.06
2022-12-03T21:02:55.738Z,92.75
2022-12-03T21:04:57.370Z,92.95
2022-12-03T21:06:59.145Z,93.1
2022-12-03T21:09:00.822Z,92.98
2022-12-03T21:11:02.056Z,92.95
2022-12-03T21:13:04.031Z,92.73
2022-12-03T21:15:05.262Z,92.63
2022-12-03T21:17:08.677Z,92.62
2022-12-03T21:19:08.072Z,92.43
2022-12-03T21:21:10.061Z,92.92
2022-12-03T21:23:11.698Z,92.43
2022-12-03T21:27:18.412Z,92.91
2022-12-03T21:29:15.563Z,92.78
2022-12-03T21:33:18.793Z,92.77
2022-12-03T21:35:20.632Z,92.82
2022-12-03T21:37:21.832Z,92.64
2022-12-03T21:39:22.971Z,92.77
2022-12-03T21:43:25.329Z,92.85
2022-12-03T21:44:09.260Z,92.69
2022-12-03T21:47:08.042Z,92.7
2022-12-03T21:48:11.858Z,93.04
2022-12-03T21:50:13.158Z,92.78
2022-12-03T21:52:14.504Z,93.05
2022-12-03T21:54:15.672Z,92.84
2022-12-03T21:56:17.574Z,92.67
2022-12-03T21:58:18.993Z,92.5
2022-12-03T22:00:20.735Z,92.65
2022-12-03T22:02:22.687Z,92.64
2022-12-03T22:04:23.840Z,92.69
2022-12-03T22:06:25.386Z,92.44
2022-12-03T22:08:26.765Z,92.34
2022-12-03T22:10:27.963Z,92.37
2022-12-03T22:12:29.144Z,92.48
2022-12-03T22:14:30.733Z,92.09
2022-12-03T22:16:31.850Z,92.3
2022-12-03T22:20:35.678Z,92.33
2022-12-03T22:22:37.071Z,91.99
2022-12-03T22:24:38.777Z,92.26
2022-12-03T22:26:39.941Z,92.37
2022-12-03T22:28:41.199Z,92.35
2022-12-03T22:30:42.723Z,92.24
2022-12-03T22:32:44.071Z,92.39
2022-12-03T22:34:45.949Z,92.2
2022-12-03T22:36:47.572Z,92.49
2022-12-03T22:38:48.634Z,92.53
2022-12-03T22:40:50.259Z,92.7
2022-12-03T22:42:51.484Z,92.89
2022-12-03T22:44:52.763Z,92.56
2022-12-03T22:46:54.119Z,92.48
2022-12-03T22:48:55.747Z,92.15
2022-12-03T22:50:57.091Z,92.23
2022-12-03T22:52:58.835Z,92.44
2022-12-03T22:55:00.483Z,92.3
2022-12-03T22:57:02.041Z,92.32
2022-12-03T22:59:03.895Z,92.18
2022-12-03T23:03:06.891Z,92.08
2022-12-03T23:05:08.369Z,92.24
2022-12-03T23:07:10.119Z,92.25
2022-12-03T23:09:11.465Z,92.21
2022-12-03T23:11:12.778Z,92.24
2022-12-03T23:13:14.624Z,92.3
2022-12-03T23:15:15.837Z,92.75
2022-12-03T23:17:17.803Z,92.44
2022-12-03T23:19:19.211Z,92.57
2022-12-03T23:21:25.497Z,92.47
2022-12-03T23:23:22.773Z,92.13
2022-12-03T23:25:23.873Z,92.1
2022-12-03T23:27:25.908Z,92.22
2022-12-03T23:29:27.452Z,92.2
2022-12-03T23:31:28.994Z,92.27
2022-12-03T23:35:31.641Z,92.12
2022-12-03T23:37:33.550Z,92.23
2022-12-03T23:39:35.402Z,92.48
2022-12-03T23:41:37.207Z,92.44
2022-12-03T23:45:40.104Z,91.88
2022-12-03T23:47:41.175Z,92.47
2022-12-03T23:49:43.121Z,92.5
2022-12-03T23:51:45.029Z,92.53
2022-12-03T23:53:46.147Z,92.64
2022-12-03T23:55:47.212Z,92.55
2022-12-03T23:57:49.364Z,92.43
2022-12-03T23:59:50.343Z,92.55
